sensor_id;sensor_type;location;lat;lon;timestamp;P1;durP1;ratioP1;P2;durP2;ratioP2
77117;SDS011;66072;50.238;19.228;2023-02-28T00:01:22;9.10;;;5.90;;
77117;SDS011;66072;50.238;19.228;2023-02-28T00:03:50;11.90;;;6.30;;
77117;SDS011;66072;50.238;19.228;2023-02-28T00:06:18;10.70;;;6.50;;
77117;SDS011;66072;50.238;19.228;2023-02-28T00:08:46;11.30;;;6.70;;
77117;SDS011;66072;50.238;19.228;2023-02-28T00:11:14;10.40;;;5.90;;
77117;SDS011;66072;50.238;19.228;2023-02-28T00:13:44;12.50;;;7.10;;
77117;SDS011;66072;50.238;19.228;2023-02-28T00:16:17;13.00;;;6.50;;
77117;SDS011;66072;50.238;19.228;2023-02-28T00:18:47;11.10;;;5.90;;
77117;SDS011;66072;50.238;19.228;2023-02-28T00:21:15;8.70;;;4.70;;
77117;SDS011;66072;50.238;19.228;2023-02-28T00:23:44;9.30;;;4.80;;
77117;SDS011;66072;50.238;19.228;2023-02-28T00:26:11;8.40;;;4.60;;
77117;SDS011;66072;50.238;19.228;2023-02-28T00:28:39;9.60;;;5.10;;
77117;SDS011;66072;50.238;19.228;2023-02-28T00:31:07;11.40;;;5.40;;
77117;SDS011;66072;50.238;19.228;2023-02-28T00:33:35;13.50;;;5.90;;
77117;SDS011;66072;50.238;19.228;2023-02-28T00:36:06;13.10;;;6.80;;
77117;SDS011;66072;50.238;19.228;2023-02-28T00:38:36;14.60;;;7.10;;
77117;SDS011;66072;50.238;19.228;2023-02-28T00:41:04;15.90;;;7.00;;
77117;SDS011;66072;50.238;19.228;2023-02-28T00:43:33;11.50;;;6.10;;
77117;SDS011;66072;50.238;19.228;2023-02-28T00:46:02;12.00;;;6.70;;
77117;SDS011;66072;50.238;19.228;2023-02-28T00:48:30;16.20;;;7.40;;
77117;SDS011;66072;50.238;19.228;2023-02-28T00:50:59;14.50;;;8.00;;
77117;SDS011;66072;50.238;19.228;2023-02-28T00:53:27;15.10;;;8.10;;
77117;SDS011;66072;50.238;19.228;2023-02-28T00:55:55;15.20;;;8.20;;
77117;SDS011;66072;50.238;19.228;2023-02-28T00:58:22;13.90;;;7.70;;
77117;SDS011;66072;50.238;19.228;2023-02-28T01:00:53;12.30;;;6.50;;
77117;SDS011;66072;50.238;19.228;2023-02-28T01:03:21;11.00;;;6.50;;
77117;SDS011;66072;50.238;19.228;2023-02-28T01:05:49;15.00;;;7.10;;
77117;SDS011;66072;50.238;19.228;2023-02-28T01:08:17;16.40;;;9.00;;
77117;SDS011;66072;50.238;19.228;2023-02-28T01:10:45;17.40;;;8.80;;
77117;SDS011;66072;50.238;19.228;2023-02-28T01:13:13;19.10;;;10.00;;
77117;SDS011;66072;50.238;19.228;2023-02-28T01:15:43;14.30;;;8.00;;
77117;SDS011;66072;50.238;19.228;2023-02-28T01:18:16;16.30;;;7.70;;
77117;SDS011;66072;50.238;19.228;2023-02-28T01:20:44;15.00;;;7.30;;
77117;SDS011;66072;50.238;19.228;2023-02-28T01:23:11;14.40;;;7.20;;
77117;SDS011;66072;50.238;19.228;2023-02-28T01:25:39;14.30;;;7.80;;
77117;SDS011;66072;50.238;19.228;2023-02-28T01:28:07;13.80;;;7.60;;
77117;SDS011;66072;50.238;19.228;2023-02-28T01:30:35;13.20;;;8.00;;
77117;SDS011;66072;50.238;19.228;2023-02-28T01:33:02;14.10;;;7.70;;
77117;SDS011;66072;50.238;19.228;2023-02-28T01:35:33;13.70;;;7.60;;
77117;SDS011;66072;50.238;19.228;2023-02-28T01:38:02;10.60;;;6.90;;
77117;SDS011;66072;50.238;19.228;2023-02-28T01:40:47;12.80;;;7.40;;
77117;SDS011;66072;50.238;19.228;2023-02-28T01:43:31;13.10;;;7.50;;
77117;SDS011;66072;50.238;19.228;2023-02-28T01:46:11;13.70;;;7.50;;
77117;SDS011;66072;50.238;19.228;2023-02-28T01:48:42;15.60;;;7.50;;
77117;SDS011;66072;50.238;19.228;2023-02-28T01:51:21;14.00;;;7.30;;
77117;SDS011;66072;50.238;19.228;2023-02-28T01:54:05;14.60;;;7.40;;
77117;SDS011;66072;50.238;19.228;2023-02-28T01:56:42;15.80;;;7.00;;
77117;SDS011;66072;50.238;19.228;2023-02-28T01:59:20;16.30;;;7.70;;
77117;SDS011;66072;50.238;19.228;2023-02-28T02:01:53;13.60;;;7.60;;
77117;SDS011;66072;50.238;19.228;2023-02-28T02:04:21;9.80;;;6.40;;
77117;SDS011;66072;50.238;19.228;2023-02-28T02:06:53;13.20;;;7.10;;
77117;SDS011;66072;50.238;19.228;2023-02-28T02:09:21;14.90;;;8.50;;
77117;SDS011;66072;50.238;19.228;2023-02-28T02:11:49;14.40;;;8.00;;
77117;SDS011;66072;50.238;19.228;2023-02-28T02:14:21;16.80;;;8.70;;
77117;SDS011;66072;50.238;19.228;2023-02-28T02:36:33;22.00;;;10.50;;
77117;SDS011;66072;50.238;19.228;2023-02-28T02:39:19;18.50;;;9.70;;
77117;SDS011;66072;50.238;19.228;2023-02-28T02:42:18;20.10;;;9.30;;
77117;SDS011;66072;50.238;19.228;2023-02-28T02:45:07;18.40;;;10.50;;
77117;SDS011;66072;50.238;19.228;2023-02-28T02:47:40;21.60;;;9.70;;
77117;SDS011;66072;50.238;19.228;2023-02-28T02:50:11;16.30;;;10.20;;
77117;SDS011;66072;50.238;19.228;2023-02-28T02:52:46;17.00;;;10.80;;
77117;SDS011;66072;50.238;19.228;2023-02-28T02:55:18;18.40;;;10.30;;
77117;SDS011;66072;50.238;19.228;2023-02-28T03:00:21;20.50;;;9.20;;
77117;SDS011;66072;50.238;19.228;2023-02-28T03:02:54;17.80;;;9.50;;
77117;SDS011;66072;50.238;19.228;2023-02-28T03:05:24;15.70;;;8.90;;
77117;SDS011;66072;50.238;19.228;2023-02-28T03:07:55;16.70;;;10.40;;
77117;SDS011;66072;50.238;19.228;2023-02-28T03:10:42;21.40;;;11.50;;
77117;SDS011;66072;50.238;19.228;2023-02-28T03:13:14;19.30;;;9.80;;
77117;SDS011;66072;50.238;19.228;2023-02-28T03:16:19;21.00;;;11.00;;
77117;SDS011;66072;50.238;19.228;2023-02-28T03:18:43;20.80;;;11.90;;
77117;SDS011;66072;50.238;19.228;2023-02-28T03:26:34;19.90;;;11.60;;
77117;SDS011;66072;50.238;19.228;2023-02-28T03:29:08;23.90;;;11.60;;
77117;SDS011;66072;50.238;19.228;2023-02-28T03:31:52;19.60;;;9.80;;
77117;SDS011;66072;50.238;19.228;2023-02-28T03:34:26;19.80;;;9.70;;
77117;SDS011;66072;50.238;19.228;2023-02-28T03:37:09;16.60;;;9.40;;
77117;SDS011;66072;50.238;19.228;2023-02-28T03:39:42;15.30;;;8.90;;
77117;SDS011;66072;50.238;19.228;2023-02-28T03:42:16;15.00;;;9.30;;
77117;SDS011;66072;50.238;19.228;2023-02-28T03:44:49;18.20;;;9.30;;
77117;SDS011;66072;50.238;19.228;2023-02-28T03:47:22;15.90;;;9.20;;
77117;SDS011;66072;50.238;19.228;2023-02-28T03:50:03;16.00;;;9.40;;
77117;SDS011;66072;50.238;19.228;2023-02-28T03:52:49;17.60;;;8.80;;
77117;SDS011;66072;50.238;19.228;2023-02-28T03:55:20;18.30;;;9.20;;
77117;SDS011;66072;50.238;19.228;2023-02-28T03:57:52;17.90;;;8.70;;
77117;SDS011;66072;50.238;19.228;2023-02-28T04:00:21;15.70;;;9.00;;
77117;SDS011;66072;50.238;19.228;2023-02-28T04:02:57;18.10;;;9.10;;
77117;SDS011;66072;50.238;19.228;2023-02-28T04:05:24;18.10;;;10.30;;
77117;SDS011;66072;50.238;19.228;2023-02-28T04:07:53;16.60;;;9.50;;
77117;SDS011;66072;50.238;19.228;2023-02-28T04:10:30;20.70;;;10.10;;
77117;SDS011;66072;50.238;19.228;2023-02-28T04:12:57;19.20;;;10.70;;
77117;SDS011;66072;50.238;19.228;2023-02-28T04:15:25;23.10;;;11.30;;
77117;SDS011;66072;50.238;19.228;2023-02-28T04:17:53;19.00;;;10.10;;
77117;SDS011;66072;50.238;19.228;2023-02-28T04:20:20;17.10;;;8.70;;
77117;SDS011;66072;50.238;19.228;2023-02-28T04:22:48;18.30;;;9.10;;
77117;SDS011;66072;50.238;19.228;2023-02-28T04:25:15;17.80;;;9.60;;
77117;SDS011;66072;50.238;19.228;2023-02-28T04:27:43;19.20;;;10.40;;
77117;SDS011;66072;50.238;19.228;2023-02-28T04:30:11;17.20;;;9.50;;
77117;SDS011;66072;50.238;19.228;2023-02-28T04:32:39;21.70;;;10.60;;
77117;SDS011;66072;50.238;19.228;2023-02-28T04:35:07;22.60;;;11.10;;
77117;SDS011;66072;50.238;19.228;2023-02-28T04:37:38;21.00;;;10.60;;
77117;SDS011;66072;50.238;19.228;2023-02-28T04:40:06;20.30;;;10.90;;
77117;SDS011;66072;50.238;19.228;2023-02-28T04:42:34;25.90;;;13.80;;
77117;SDS011;66072;50.238;19.228;2023-02-28T04:45:02;25.90;;;12.50;;
77117;SDS011;66072;50.238;19.228;2023-02-28T04:47:30;23.70;;;12.00;;
77117;SDS011;66072;50.238;19.228;2023-02-28T04:49:58;18.20;;;10.70;;
77117;SDS011;66072;50.238;19.228;2023-02-28T04:52:26;20.80;;;11.90;;
77117;SDS011;66072;50.238;19.228;2023-02-28T04:54:54;22.30;;;11.60;;
77117;SDS011;66072;50.238;19.228;2023-02-28T04:57:22;22.90;;;11.10;;
77117;SDS011;66072;50.238;19.228;2023-02-28T04:59:49;24.20;;;11.00;;
77117;SDS011;66072;50.238;19.228;2023-02-28T05:02:17;21.90;;;12.10;;
77117;SDS011;66072;50.238;19.228;2023-02-28T05:04:45;24.00;;;11.30;;
77117;SDS011;66072;50.238;19.228;2023-02-28T05:07:12;23.90;;;12.40;;
77117;SDS011;66072;50.238;19.228;2023-02-28T05:09:40;23.10;;;12.10;;
77117;SDS011;66072;50.238;19.228;2023-02-28T05:12:08;26.40;;;13.20;;
77117;SDS011;66072;50.238;19.228;2023-02-28T05:14:36;28.30;;;14.70;;
77117;SDS011;66072;50.238;19.228;2023-02-28T05:17:04;31.40;;;15.10;;
77117;SDS011;66072;50.238;19.228;2023-02-28T05:19:31;27.40;;;12.90;;
77117;SDS011;66072;50.238;19.228;2023-02-28T05:21:59;22.40;;;11.50;;
77117;SDS011;66072;50.238;19.228;2023-02-28T05:24:26;25.70;;;12.10;;
77117;SDS011;66072;50.238;19.228;2023-02-28T05:26:54;26.70;;;13.10;;
77117;SDS011;66072;50.238;19.228;2023-02-28T05:29:22;22.20;;;11.70;;
77117;SDS011;66072;50.238;19.228;2023-02-28T05:31:50;19.40;;;11.30;;
77117;SDS011;66072;50.238;19.228;2023-02-28T05:34:17;20.20;;;11.90;;
77117;SDS011;66072;50.238;19.228;2023-02-28T05:36:45;24.10;;;12.70;;
77117;SDS011;66072;50.238;19.228;2023-02-28T05:39:13;23.70;;;12.50;;
77117;SDS011;66072;50.238;19.228;2023-02-28T05:41:41;22.50;;;11.70;;
77117;SDS011;66072;50.238;19.228;2023-02-28T05:44:09;24.30;;;12.90;;
77117;SDS011;66072;50.238;19.228;2023-02-28T05:46:38;23.50;;;11.70;;
77117;SDS011;66072;50.238;19.228;2023-02-28T05:49:05;21.40;;;12.40;;
77117;SDS011;66072;50.238;19.228;2023-02-28T05:51:33;22.40;;;12.50;;
77117;SDS011;66072;50.238;19.228;2023-02-28T05:54:01;25.10;;;13.60;;
77117;SDS011;66072;50.238;19.228;2023-02-28T05:56:29;26.20;;;14.80;;
77117;SDS011;66072;50.238;19.228;2023-02-28T05:58:56;28.20;;;15.00;;
77117;SDS011;66072;50.238;19.228;2023-02-28T06:01:35;26.10;;;14.10;;
77117;SDS011;66072;50.238;19.228;2023-02-28T06:04:08;31.30;;;14.50;;
77117;SDS011;66072;50.238;19.228;2023-02-28T06:06:55;30.20;;;16.40;;
77117;SDS011;66072;50.238;19.228;2023-02-28T06:09:23;26.20;;;15.10;;
77117;SDS011;66072;50.238;19.228;2023-02-28T06:11:50;34.10;;;17.50;;
77117;SDS011;66072;50.238;19.228;2023-02-28T06:14:18;31.00;;;15.50;;
77117;SDS011;66072;50.238;19.228;2023-02-28T06:16:46;28.90;;;15.90;;
77117;SDS011;66072;50.238;19.228;2023-02-28T06:19:14;30.70;;;16.70;;
77117;SDS011;66072;50.238;19.228;2023-02-28T06:21:42;34.80;;;19.00;;
77117;SDS011;66072;50.238;19.228;2023-02-28T06:24:11;28.70;;;14.70;;
77117;SDS011;66072;50.238;19.228;2023-02-28T06:26:38;33.50;;;19.00;;
77117;SDS011;66072;50.238;19.228;2023-02-28T06:29:06;34.50;;;18.00;;
77117;SDS011;66072;50.238;19.228;2023-02-28T06:31:33;29.40;;;15.30;;
77117;SDS011;66072;50.238;19.228;2023-02-28T06:34:01;31.70;;;16.90;;
77117;SDS011;66072;50.238;19.228;2023-02-28T06:36:29;41.10;;;19.50;;
77117;SDS011;66072;50.238;19.228;2023-02-28T06:38:57;36.90;;;19.80;;
77117;SDS011;66072;50.238;19.228;2023-02-28T06:41:25;28.70;;;15.10;;
77117;SDS011;66072;50.238;19.228;2023-02-28T06:43:53;31.10;;;16.70;;
77117;SDS011;66072;50.238;19.228;2023-02-28T06:46:21;29.60;;;14.70;;
77117;SDS011;66072;50.238;19.228;2023-02-28T06:48:49;28.70;;;15.60;;
77117;SDS011;66072;50.238;19.228;2023-02-28T06:51:18;29.10;;;15.70;;
77117;SDS011;66072;50.238;19.228;2023-02-28T06:53:47;29.40;;;14.40;;
77117;SDS011;66072;50.238;19.228;2023-02-28T06:56:15;27.90;;;13.30;;
77117;SDS011;66072;50.238;19.228;2023-02-28T06:58:47;25.00;;;12.00;;
77117;SDS011;66072;50.238;19.228;2023-02-28T07:01:16;30.30;;;13.10;;
77117;SDS011;66072;50.238;19.228;2023-02-28T07:03:44;20.70;;;12.50;;
77117;SDS011;66072;50.238;19.228;2023-02-28T07:06:13;22.10;;;11.30;;
77117;SDS011;66072;50.238;19.228;2023-02-28T07:08:40;24.70;;;12.30;;
77117;SDS011;66072;50.238;19.228;2023-02-28T07:11:08;24.30;;;13.50;;
77117;SDS011;66072;50.238;19.228;2023-02-28T07:13:36;32.20;;;14.50;;
77117;SDS011;66072;50.238;19.228;2023-02-28T07:16:04;22.70;;;13.40;;
77117;SDS011;66072;50.238;19.228;2023-02-28T07:18:34;22.40;;;13.70;;
77117;SDS011;66072;50.238;19.228;2023-02-28T07:21:05;27.20;;;14.50;;
77117;SDS011;66072;50.238;19.228;2023-02-28T07:23:35;25.90;;;13.00;;
77117;SDS011;66072;50.238;19.228;2023-02-28T07:26:03;27.60;;;13.50;;
77117;SDS011;66072;50.238;19.228;2023-02-28T07:28:31;23.10;;;12.00;;
77117;SDS011;66072;50.238;19.228;2023-02-28T07:31:03;21.90;;;11.50;;
77117;SDS011;66072;50.238;19.228;2023-02-28T07:33:32;21.90;;;12.60;;
77117;SDS011;66072;50.238;19.228;2023-02-28T07:36:10;28.10;;;12.80;;
77117;SDS011;66072;50.238;19.228;2023-02-28T07:38:41;23.30;;;13.90;;
77117;SDS011;66072;50.238;19.228;2023-02-28T07:41:11;28.50;;;15.20;;
77117;SDS011;66072;50.238;19.228;2023-02-28T07:43:39;21.30;;;11.60;;
77117;SDS011;66072;50.238;19.228;2023-02-28T07:46:07;22.40;;;11.00;;
77117;SDS011;66072;50.238;19.228;2023-02-28T07:48:36;24.40;;;11.90;;
77117;SDS011;66072;50.238;19.228;2023-02-28T07:51:04;20.00;;;11.60;;
77117;SDS011;66072;50.238;19.228;2023-02-28T07:53:32;14.70;;;9.20;;
77117;SDS011;66072;50.238;19.228;2023-02-28T07:56:00;15.40;;;9.60;;
77117;SDS011;66072;50.238;19.228;2023-02-28T07:58:29;22.60;;;11.80;;
77117;SDS011;66072;50.238;19.228;2023-02-28T08:00:57;24.20;;;11.40;;
77117;SDS011;66072;50.238;19.228;2023-02-28T08:03:32;21.00;;;11.30;;
77117;SDS011;66072;50.238;19.228;2023-02-28T08:06:00;21.50;;;11.10;;
77117;SDS011;66072;50.238;19.228;2023-02-28T08:08:29;23.60;;;12.90;;
77117;SDS011;66072;50.238;19.228;2023-02-28T08:11:00;20.20;;;10.60;;
77117;SDS011;66072;50.238;19.228;2023-02-28T08:13:29;16.70;;;9.50;;
77117;SDS011;66072;50.238;19.228;2023-02-28T08:15:57;22.10;;;12.60;;
77117;SDS011;66072;50.238;19.228;2023-02-28T08:18:25;17.40;;;10.60;;
77117;SDS011;66072;50.238;19.228;2023-02-28T08:20:52;15.80;;;9.20;;
77117;SDS011;66072;50.238;19.228;2023-02-28T08:23:20;18.30;;;10.30;;
77117;SDS011;66072;50.238;19.228;2023-02-28T08:25:54;22.40;;;11.70;;
77117;SDS011;66072;50.238;19.228;2023-02-28T08:28:23;14.80;;;7.80;;
77117;SDS011;66072;50.238;19.228;2023-02-28T08:30:53;22.80;;;12.50;;
77117;SDS011;66072;50.238;19.228;2023-02-28T08:33:22;13.10;;;7.60;;
77117;SDS011;66072;50.238;19.228;2023-02-28T08:35:54;18.80;;;10.30;;
77117;SDS011;66072;50.238;19.228;2023-02-28T08:38:23;21.90;;;11.70;;
77117;SDS011;66072;50.238;19.228;2023-02-28T08:40:56;19.90;;;11.30;;
77117;SDS011;66072;50.238;19.228;2023-02-28T08:43:25;24.10;;;13.50;;
77117;SDS011;66072;50.238;19.228;2023-02-28T08:45:54;18.80;;;10.00;;
77117;SDS011;66072;50.238;19.228;2023-02-28T08:48:26;14.30;;;7.90;;
77117;SDS011;66072;50.238;19.228;2023-02-28T08:53:34;16.00;;;10.40;;
77117;SDS011;66072;50.238;19.228;2023-02-28T08:56:04;14.40;;;9.00;;
77117;SDS011;66072;50.238;19.228;2023-02-28T08:58:32;14.80;;;9.90;;
77117;SDS011;66072;50.238;19.228;2023-02-28T09:01:06;14.80;;;8.60;;
77117;SDS011;66072;50.238;19.228;2023-02-28T09:05:05;14.90;;;8.60;;
77117;SDS011;66072;50.238;19.228;2023-02-28T09:07:34;15.10;;;9.20;;
77117;SDS011;66072;50.238;19.228;2023-02-28T09:10:01;13.30;;;8.40;;
77117;SDS011;66072;50.238;19.228;2023-02-28T09:12:31;15.80;;;9.10;;
77117;SDS011;66072;50.238;19.228;2023-02-28T09:15:01;10.80;;;7.60;;
77117;SDS011;66072;50.238;19.228;2023-02-28T09:17:29;16.30;;;9.50;;
77117;SDS011;66072;50.238;19.228;2023-02-28T09:19:57;14.30;;;9.10;;
77117;SDS011;66072;50.238;19.228;2023-02-28T09:22:25;13.10;;;8.70;;
77117;SDS011;66072;50.238;19.228;2023-02-28T09:24:52;13.40;;;8.20;;
77117;SDS011;66072;50.238;19.228;2023-02-28T09:27:20;12.70;;;7.30;;
77117;SDS011;66072;50.238;19.228;2023-02-28T09:29:48;13.60;;;8.20;;
77117;SDS011;66072;50.238;19.228;2023-02-28T09:32:15;12.20;;;6.70;;
77117;SDS011;66072;50.238;19.228;2023-02-28T09:34:43;15.30;;;8.70;;
77117;SDS011;66072;50.238;19.228;2023-02-28T09:37:11;13.10;;;8.50;;
77117;SDS011;66072;50.238;19.228;2023-02-28T09:39:38;14.50;;;9.40;;
77117;SDS011;66072;50.238;19.228;2023-02-28T09:42:06;14.00;;;9.10;;
77117;SDS011;66072;50.238;19.228;2023-02-28T09:44:48;15.40;;;9.20;;
77117;SDS011;66072;50.238;19.228;2023-02-28T09:47:19;16.00;;;9.30;;
77117;SDS011;66072;50.238;19.228;2023-02-28T09:49:54;14.90;;;9.80;;
77117;SDS011;66072;50.238;19.228;2023-02-28T09:52:28;12.50;;;7.70;;
77117;SDS011;66072;50.238;19.228;2023-02-28T09:55:19;17.80;;;9.60;;
77117;SDS011;66072;50.238;19.228;2023-02-28T09:57:48;81.60;;;19.30;;
77117;SDS011;66072;50.238;19.228;2023-02-28T10:00:21;15.40;;;8.20;;
77117;SDS011;66072;50.238;19.228;2023-02-28T10:05:41;12.20;;;7.00;;
77117;SDS011;66072;50.238;19.228;2023-02-28T10:08:17;10.50;;;6.20;;
77117;SDS011;66072;50.238;19.228;2023-02-28T10:10:50;12.60;;;7.60;;
77117;SDS011;66072;50.238;19.228;2023-02-28T10:13:26;13.20;;;8.40;;
77117;SDS011;66072;50.238;19.228;2023-02-28T10:15:55;9.60;;;5.70;;
77117;SDS011;66072;50.238;19.228;2023-02-28T10:18:27;14.60;;;8.40;;
77117;SDS011;66072;50.238;19.228;2023-02-28T10:21:19;13.60;;;8.00;;
77117;SDS011;66072;50.238;19.228;2023-02-28T10:23:53;13.10;;;8.50;;
77117;SDS011;66072;50.238;19.228;2023-02-28T10:26:29;14.30;;;8.50;;
77117;SDS011;66072;50.238;19.228;2023-02-28T10:28:59;13.70;;;8.60;;
77117;SDS011;66072;50.238;19.228;2023-02-28T10:31:27;13.70;;;9.20;;
77117;SDS011;66072;50.238;19.228;2023-02-28T10:33:55;16.30;;;11.10;;
77117;SDS011;66072;50.238;19.228;2023-02-28T10:36:23;13.20;;;8.90;;
77117;SDS011;66072;50.238;19.228;2023-02-28T10:38:51;13.90;;;9.10;;
77117;SDS011;66072;50.238;19.228;2023-02-28T10:41:31;14.40;;;9.30;;
77117;SDS011;66072;50.238;19.228;2023-02-28T10:44:20;14.70;;;9.80;;
77117;SDS011;66072;50.238;19.228;2023-02-28T10:46:49;14.60;;;9.50;;
77117;SDS011;66072;50.238;19.228;2023-02-28T10:49:22;15.20;;;9.60;;
77117;SDS011;66072;50.238;19.228;2023-02-28T10:51:52;10.40;;;7.30;;
77117;SDS011;66072;50.238;19.228;2023-02-28T10:54:24;10.60;;;6.70;;
77117;SDS011;66072;50.238;19.228;2023-02-28T10:57:19;13.40;;;8.60;;
77117;SDS011;66072;50.238;19.228;2023-02-28T10:59:53;14.20;;;8.50;;
77117;SDS011;66072;50.238;19.228;2023-02-28T11:02:41;14.90;;;9.40;;
77117;SDS011;66072;50.238;19.228;2023-02-28T11:08:12;15.30;;;9.30;;
77117;SDS011;66072;50.238;19.228;2023-02-28T11:11:03;13.40;;;9.60;;
77117;SDS011;66072;50.238;19.228;2023-02-28T11:13:35;10.00;;;6.40;;
77117;SDS011;66072;50.238;19.228;2023-02-28T11:16:04;13.00;;;9.10;;
77117;SDS011;66072;50.238;19.228;2023-02-28T11:18:41;13.80;;;8.90;;
77117;SDS011;66072;50.238;19.228;2023-02-28T11:21:22;13.30;;;8.30;;
77117;SDS011;66072;50.238;19.228;2023-02-28T11:23:55;12.30;;;8.60;;
77117;SDS011;66072;50.238;19.228;2023-02-28T11:26:44;10.90;;;7.10;;
77117;SDS011;66072;50.238;19.228;2023-02-28T11:29:20;13.00;;;8.10;;
77117;SDS011;66072;50.238;19.228;2023-02-28T11:34:36;13.00;;;9.00;;
77117;SDS011;66072;50.238;19.228;2023-02-28T11:37:05;12.60;;;8.90;;
77117;SDS011;66072;50.238;19.228;2023-02-28T11:39:39;15.10;;;9.10;;
77117;SDS011;66072;50.238;19.228;2023-02-28T11:42:23;12.50;;;8.60;;
77117;SDS011;66072;50.238;19.228;2023-02-28T11:50:34;15.20;;;9.20;;
77117;SDS011;66072;50.238;19.228;2023-02-28T11:53:26;13.50;;;9.40;;
77117;SDS011;66072;50.238;19.228;2023-02-28T11:56:13;13.90;;;8.90;;
77117;SDS011;66072;50.238;19.228;2023-02-28T12:07:38;97.10;;;20.30;;
77117;SDS011;66072;50.238;19.228;2023-02-28T12:10:30;12.50;;;8.70;;
77117;SDS011;66072;50.238;19.228;2023-02-28T12:26:59;10.90;;;8.40;;
77117;SDS011;66072;50.238;19.228;2023-02-28T12:32:09;12.20;;;8.60;;
77117;SDS011;66072;50.238;19.228;2023-02-28T12:34:51;12.00;;;8.70;;
77117;SDS011;66072;50.238;19.228;2023-02-28T12:40:13;11.90;;;9.40;;
77117;SDS011;66072;50.238;19.228;2023-02-28T12:42:53;11.60;;;7.90;;
77117;SDS011;66072;50.238;19.228;2023-02-28T12:46:00;9.90;;;8.10;;
77117;SDS011;66072;50.238;19.228;2023-02-28T12:50:58;12.40;;;8.20;;
77117;SDS011;66072;50.238;19.228;2023-02-28T12:56:37;9.60;;;7.80;;
77117;SDS011;66072;50.238;19.228;2023-02-28T12:59:31;10.10;;;7.50;;
77117;SDS011;66072;50.238;19.228;2023-02-28T13:10:43;10.90;;;9.20;;
77117;SDS011;66072;50.238;19.228;2023-02-28T13:13:18;13.80;;;8.30;;
77117;SDS011;66072;50.238;19.228;2023-02-28T13:15:58;11.20;;;7.60;;
77117;SDS011;66072;50.238;19.228;2023-02-28T13:18:45;11.10;;;8.20;;
77117;SDS011;66072;50.238;19.228;2023-02-28T13:21:27;10.10;;;8.00;;
77117;SDS011;66072;50.238;19.228;2023-02-28T13:23:58;11.60;;;8.20;;
77117;SDS011;66072;50.238;19.228;2023-02-28T13:34:46;10.10;;;7.70;;
77117;SDS011;66072;50.238;19.228;2023-02-28T13:37:36;10.30;;;8.10;;
77117;SDS011;66072;50.238;19.228;2023-02-28T13:47:42;10.20;;;8.70;;
77117;SDS011;66072;50.238;19.228;2023-02-28T13:50:19;10.80;;;8.60;;
77117;SDS011;66072;50.238;19.228;2023-02-28T13:55:44;8.40;;;7.30;;
77117;SDS011;66072;50.238;19.228;2023-02-28T13:58:22;9.80;;;7.00;;
77117;SDS011;66072;50.238;19.228;2023-02-28T14:03:43;9.10;;;7.50;;
77117;SDS011;66072;50.238;19.228;2023-02-28T14:08:46;10.40;;;8.00;;
77117;SDS011;66072;50.238;19.228;2023-02-28T14:14:02;9.20;;;7.90;;
77117;SDS011;66072;50.238;19.228;2023-02-28T14:16:45;10.00;;;8.10;;
77117;SDS011;66072;50.238;19.228;2023-02-28T14:19:21;8.70;;;7.60;;
77117;SDS011;66072;50.238;19.228;2023-02-28T14:22:19;10.30;;;7.50;;
77117;SDS011;66072;50.238;19.228;2023-02-28T14:25:04;11.30;;;7.10;;
77117;SDS011;66072;50.238;19.228;2023-02-28T14:33:33;9.90;;;7.20;;
77117;SDS011;66072;50.238;19.228;2023-02-28T14:36:22;10.00;;;7.90;;
77117;SDS011;66072;50.238;19.228;2023-02-28T14:38:56;9.20;;;6.60;;
77117;SDS011;66072;50.238;19.228;2023-02-28T14:43:55;10.50;;;7.20;;
77117;SDS011;66072;50.238;19.228;2023-02-28T14:46:37;8.10;;;6.00;;
77117;SDS011;66072;50.238;19.228;2023-02-28T14:49:12;10.80;;;7.40;;
77117;SDS011;66072;50.238;19.228;2023-02-28T14:51:44;9.70;;;6.90;;
77117;SDS011;66072;50.238;19.228;2023-02-28T14:54:13;9.90;;;8.20;;
77117;SDS011;66072;50.238;19.228;2023-02-28T14:56:43;10.70;;;8.10;;
77117;SDS011;66072;50.238;19.228;2023-02-28T14:59:23;10.30;;;7.60;;
77117;SDS011;66072;50.238;19.228;2023-02-28T15:04:42;12.00;;;7.60;;
77117;SDS011;66072;50.238;19.228;2023-02-28T15:07:10;10.10;;;7.50;;
77117;SDS011;66072;50.238;19.228;2023-02-28T15:09:41;10.20;;;7.50;;
77117;SDS011;66072;50.238;19.228;2023-02-28T15:12:12;12.30;;;8.80;;
77117;SDS011;66072;50.238;19.228;2023-02-28T15:14:42;11.50;;;7.60;;
77117;SDS011;66072;50.238;19.228;2023-02-28T15:19:48;12.00;;;9.00;;
77117;SDS011;66072;50.238;19.228;2023-02-28T15:22:22;14.20;;;9.90;;
77117;SDS011;66072;50.238;19.228;2023-02-28T15:24:56;11.70;;;8.80;;
77117;SDS011;66072;50.238;19.228;2023-02-28T15:27:28;12.50;;;8.80;;
77117;SDS011;66072;50.238;19.228;2023-02-28T15:29:59;13.30;;;8.80;;
77117;SDS011;66072;50.238;19.228;2023-02-28T15:32:32;12.60;;;8.50;;
77117;SDS011;66072;50.238;19.228;2023-02-28T15:37:56;12.60;;;7.70;;
77117;SDS011;66072;50.238;19.228;2023-02-28T15:43:17;14.00;;;9.40;;
77117;SDS011;66072;50.238;19.228;2023-02-28T15:53:45;15.00;;;9.50;;
77117;SDS011;66072;50.238;19.228;2023-02-28T15:56:22;17.40;;;10.40;;
77117;SDS011;66072;50.238;19.228;2023-02-28T15:58:59;20.80;;;10.10;;
77117;SDS011;66072;50.238;19.228;2023-02-28T16:01:36;15.40;;;9.70;;
77117;SDS011;66072;50.238;19.228;2023-02-28T16:04:06;18.30;;;9.10;;
77117;SDS011;66072;50.238;19.228;2023-02-28T16:07:47;24.90;;;10.60;;
77117;SDS011;66072;50.238;19.228;2023-02-28T16:10:14;18.70;;;10.50;;
77117;SDS011;66072;50.238;19.228;2023-02-28T16:12:42;15.40;;;9.50;;
77117;SDS011;66072;50.238;19.228;2023-02-28T16:15:19;16.90;;;9.70;;
77117;SDS011;66072;50.238;19.228;2023-02-28T16:17:58;18.60;;;9.60;;
77117;SDS011;66072;50.238;19.228;2023-02-28T16:20:30;14.80;;;8.70;;
77117;SDS011;66072;50.238;19.228;2023-02-28T16:22:58;20.10;;;11.20;;
77117;SDS011;66072;50.238;19.228;2023-02-28T16:25:35;19.70;;;11.40;;
77117;SDS011;66072;50.238;19.228;2023-02-28T16:28:40;18.80;;;10.30;;
77117;SDS011;66072;50.238;19.228;2023-02-28T16:31:05;24.00;;;12.70;;
77117;SDS011;66072;50.238;19.228;2023-02-28T16:33:34;23.30;;;12.10;;
77117;SDS011;66072;50.238;19.228;2023-02-28T16:36:02;23.30;;;12.30;;
77117;SDS011;66072;50.238;19.228;2023-02-28T16:38:30;19.70;;;11.10;;
77117;SDS011;66072;50.238;19.228;2023-02-28T16:40:58;18.70;;;11.40;;
77117;SDS011;66072;50.238;19.228;2023-02-28T16:43:27;21.20;;;11.50;;
77117;SDS011;66072;50.238;19.228;2023-02-28T16:45:55;24.50;;;11.90;;
77117;SDS011;66072;50.238;19.228;2023-02-28T16:48:27;21.60;;;11.80;;
77117;SDS011;66072;50.238;19.228;2023-02-28T16:50:55;21.20;;;11.00;;
77117;SDS011;66072;50.238;19.228;2023-02-28T16:53:22;19.40;;;11.30;;
77117;SDS011;66072;50.238;19.228;2023-02-28T16:55:50;18.40;;;10.10;;
77117;SDS011;66072;50.238;19.228;2023-02-28T16:58:18;20.30;;;10.70;;
77117;SDS011;66072;50.238;19.228;2023-02-28T17:00:45;20.70;;;11.00;;
77117;SDS011;66072;50.238;19.228;2023-02-28T17:03:19;21.10;;;12.80;;
77117;SDS011;66072;50.238;19.228;2023-02-28T17:06:00;22.00;;;12.60;;
77117;SDS011;66072;50.238;19.228;2023-02-28T17:08:27;22.40;;;11.80;;